createdAt,value
2019-03-24T00:01:41.187Z,16.80
2019-03-24T00:04:06.141Z,16.70
2019-03-24T00:06:34.757Z,16.90
2019-03-24T00:09:04.281Z,16.13
2019-03-24T00:11:32.898Z,17.53
2019-03-24T00:14:01.477Z,17.73
2019-03-24T00:16:30.129Z,15.63
2019-03-24T00:18:58.665Z,15.80
2019-03-24T00:21:27.218Z,15.97
2019-03-24T00:23:55.799Z,16.47
2019-03-24T00:26:24.373Z,16.57
2019-03-24T00:28:52.927Z,15.10
2019-03-24T00:31:21.508Z,15.83
2019-03-24T00:33:50.061Z,14.80
2019-03-24T00:36:18.608Z,16.33
2019-03-24T00:38:47.185Z,16.37
2019-03-24T00:41:15.732Z,16.83
2019-03-24T00:43:44.310Z,15.83
2019-03-24T00:46:12.926Z,17.93
2019-03-24T00:48:41.577Z,17.07
2019-03-24T00:51:10.128Z,16.37
2019-03-24T00:53:38.704Z,15.00
2019-03-24T00:56:06.925Z,15.97
2019-03-24T00:58:35.508Z,15.63
2019-03-24T01:01:04.194Z,15.73
2019-03-24T01:03:32.446Z,16.23
2019-03-24T01:06:01.930Z,15.73
2019-03-24T01:08:30.636Z,16.03
2019-03-24T01:10:58.929Z,16.27
2019-03-24T01:13:27.255Z,15.47
2019-03-24T01:15:55.803Z,15.63
2019-03-24T01:18:24.387Z,17.10
2019-03-24T01:20:52.607Z,15.70
2019-03-24T01:23:21.650Z,16.37
2019-03-24T01:25:50.270Z,15.37
2019-03-24T01:28:18.849Z,16.10
2019-03-24T01:30:47.142Z,16.17
2019-03-24T01:33:15.694Z,14.80
2019-03-24T01:35:44.274Z,15.20
2019-03-24T01:38:12.818Z,13.93
2019-03-24T01:40:41.388Z,15.57
2019-03-24T01:43:09.941Z,16.10
2019-03-24T01:45:38.194Z,15.40
2019-03-24T01:48:06.817Z,16.23
2019-03-24T01:50:35.393Z,14.73
2019-03-24T01:53:03.937Z,15.00
2019-03-24T01:55:32.581Z,15.23
2019-03-24T01:58:01.128Z,15.47
2019-03-24T02:00:29.384Z,16.20
2019-03-24T02:02:57.605Z,16.07
2019-03-24T02:05:26.186Z,17.20
2019-03-24T02:07:54.733Z,16.27
2019-03-24T02:10:23.313Z,16.30
2019-03-24T02:12:51.852Z,16.30
2019-03-24T02:15:20.424Z,16.03
2019-03-24T02:17:49.035Z,16.43
2019-03-24T02:20:17.850Z,15.50
2019-03-24T02:22:46.460Z,16.57
2019-03-24T02:25:15.033Z,15.77
2019-03-24T02:27:43.582Z,15.40
2019-03-24T02:30:13.764Z,15.83
2019-03-24T02:32:42.401Z,15.47
2019-03-24T02:35:11.084Z,15.73
2019-03-24T02:37:39.663Z,15.63
2019-03-24T02:40:09.641Z,15.53
2019-03-24T02:42:38.296Z,15.13
2019-03-24T02:45:07.487Z,14.97
2019-03-24T02:47:36.057Z,14.83
2019-03-24T02:50:06.037Z,15.23
2019-03-24T02:52:34.302Z,15.40
2019-03-24T02:55:03.221Z,14.63
2019-03-24T02:57:31.789Z,14.77
2019-03-24T02:59:59.995Z,14.60
2019-03-24T03:02:28.249Z,14.97
2019-03-24T03:04:56.794Z,14.43
2019-03-24T03:07:25.361Z,14.60
2019-03-24T03:09:53.908Z,15.23
2019-03-24T03:12:22.564Z,14.60
2019-03-24T03:14:50.773Z,14.90
2019-03-24T03:17:19.020Z,16.33
2019-03-24T03:19:47.573Z,15.90
2019-03-24T03:22:16.226Z,15.07
2019-03-24T03:24:44.765Z,16.03
2019-03-24T03:27:13.337Z,14.60
2019-03-24T03:29:41.560Z,16.60
2019-03-24T03:32:09.822Z,16.53
2019-03-24T03:34:38.363Z,15.27
2019-03-24T03:37:06.983Z,15.30
2019-03-24T03:39:35.548Z,15.03
2019-03-24T03:42:04.230Z,15.63
2019-03-24T03:44:32.877Z,15.93
2019-03-24T03:47:01.422Z,15.50
2019-03-24T03:49:29.669Z,15.30
2019-03-24T03:51:58.222Z,14.70
2019-03-24T03:54:26.789Z,15.73
2019-03-24T03:56:55.338Z,15.23
2019-03-24T03:59:23.991Z,14.70
2019-03-24T04:01:52.528Z,15.40
2019-03-24T04:04:21.096Z,15.20
2019-03-24T04:06:49.314Z,15.80
2019-03-24T04:09:17.881Z,15.90
2019-03-24T04:11:46.506Z,15.17
2019-03-24T04:14:15.140Z,15.93
2019-03-24T04:16:43.684Z,14.73
2019-03-24T04:19:12.254Z,14.80
2019-03-24T04:21:40.804Z,16.50
2019-03-24T04:24:09.053Z,15.63
2019-03-24T04:26:37.597Z,14.97
2019-03-24T04:29:06.260Z,15.97
2019-03-24T04:31:34.807Z,13.87
2019-03-24T04:34:03.390Z,15.67
2019-03-24T04:36:31.928Z,15.87
2019-03-24T04:39:00.550Z,15.17
2019-03-24T04:41:29.117Z,15.10
2019-03-24T04:43:57.662Z,15.97
2019-03-24T04:46:26.236Z,15.87
2019-03-24T04:48:54.776Z,14.60
2019-03-24T04:51:23.356Z,14.73
2019-03-24T04:53:51.572Z,15.83
2019-03-24T04:56:19.816Z,16.27
2019-03-24T04:58:48.364Z,13.90
2019-03-24T05:01:17.005Z,15.40
2019-03-24T05:03:45.548Z,14.60
2019-03-24T05:06:14.564Z,14.53
2019-03-24T05:08:44.548Z,15.83
2019-03-24T05:11:13.192Z,14.17
2019-03-24T05:13:41.734Z,14.70
2019-03-24T05:16:09.979Z,13.80
2019-03-24T05:18:38.196Z,15.23
2019-03-24T05:21:06.918Z,16.07
2019-03-24T05:23:35.136Z,16.37
2019-03-24T05:26:03.383Z,14.10
2019-03-24T05:28:31.601Z,14.17
2019-03-24T05:30:59.848Z,14.00
2019-03-24T05:33:28.400Z,14.20
2019-03-24T05:35:56.974Z,13.47
2019-03-24T05:38:25.515Z,13.80
2019-03-24T05:40:54.156Z,14.07
2019-03-24T05:43:22.375Z,15.00
2019-03-24T05:45:50.623Z,15.83
2019-03-24T05:48:19.163Z,16.50
2019-03-24T05:50:47.712Z,15.60
2019-03-24T05:53:16.284Z,15.87
2019-03-24T05:55:44.896Z,15.27
2019-03-24T05:58:13.476Z,15.83
2019-03-24T06:00:41.696Z,16.77
2019-03-24T06:03:10.267Z,16.60
2019-03-24T06:05:38.810Z,15.97
2019-03-24T06:08:07.379Z,16.50
2019-03-24T06:10:35.926Z,15.53
2019-03-24T06:13:04.171Z,15.60
2019-03-24T06:15:32.459Z,16.37
2019-03-24T06:18:01.036Z,16.37
2019-03-24T06:20:29.582Z,17.47
2019-03-24T06:22:58.148Z,17.37
2019-03-24T06:25:26.694Z,16.53
2019-03-24T06:27:55.265Z,16.57
2019-03-24T06:30:23.804Z,17.37
2019-03-24T06:32:52.056Z,17.60
2019-03-24T06:35:20.611Z,16.07
2019-03-24T06:37:48.925Z,17.30
2019-03-24T06:40:19.758Z,18.37
2019-03-24T06:42:48.260Z,18.47
2019-03-24T06:45:16.806Z,19.80
2019-03-24T06:47:45.378Z,19.77
2019-03-24T06:50:14.760Z,21.97
2019-03-24T06:52:43.335Z,22.10
2019-03-24T06:55:11.617Z,23.73
2019-03-24T06:57:40.192Z,22.63
2019-03-24T07:00:10.568Z,24.23
2019-03-24T07:02:39.145Z,22.87
2019-03-24T07:05:08.215Z,22.80
2019-03-24T07:07:36.828Z,19.57
2019-03-24T07:10:07.975Z,17.90
2019-03-24T07:12:36.760Z,17.97
2019-03-24T07:15:08.040Z,18.77
2019-03-24T07:17:37.707Z,18.23
2019-03-24T07:20:06.377Z,19.53
2019-03-24T07:22:34.921Z,16.47
2019-03-24T07:25:03.740Z,18.67
2019-03-24T07:27:31.948Z,18.50
2019-03-24T07:30:00.657Z,18.80
2019-03-24T07:32:29.137Z,17.43
2019-03-24T07:34:57.712Z,18.13
2019-03-24T07:37:26.252Z,16.30
2019-03-24T07:39:54.832Z,16.53
2019-03-24T07:42:23.444Z,18.33
2019-03-24T07:44:51.876Z,18.43
2019-03-24T07:47:20.498Z,18.47
2019-03-24T07:49:49.068Z,18.80
2019-03-24T07:52:17.616Z,19.13
2019-03-24T07:54:46.204Z,20.70
2019-03-24T07:57:14.748Z,20.43
2019-03-24T07:59:43.312Z,21.47
2019-03-24T08:02:11.531Z,20.87
2019-03-24T08:04:40.104Z,19.17
2019-03-24T08:07:08.653Z,21.70
2019-03-24T08:09:37.367Z,24.37
2019-03-24T08:12:06.036Z,22.90
2019-03-24T08:14:34.284Z,23.57
2019-03-24T08:17:02.833Z,24.10
2019-03-24T08:19:31.413Z,25.03
2019-03-24T08:22:00.025Z,24.53
2019-03-24T08:24:28.601Z,25.73
2019-03-24T08:27:18.057Z,25.47
2019-03-24T08:29:46.289Z,27.30
2019-03-24T08:32:14.834Z,28.77
2019-03-24T08:34:43.408Z,27.23
2019-03-24T08:37:11.950Z,29.37
2019-03-24T08:39:40.269Z,32.30
2019-03-24T08:42:08.884Z,28.77
2019-03-24T08:44:37.601Z,30.70
2019-03-24T08:47:06.145Z,29.53
2019-03-24T08:49:34.716Z,30.53
2019-03-24T08:52:03.271Z,31.80
2019-03-24T08:54:31.851Z,33.73
2019-03-24T08:57:00.393Z,31.37
2019-03-24T08:59:28.968Z,33.73
2019-03-24T09:01:57.517Z,30.50
2019-03-24T09:04:26.074Z,32.67
2019-03-24T09:06:54.846Z,32.80
2019-03-24T09:09:23.589Z,32.20
2019-03-24T09:11:52.147Z,34.53
2019-03-24T09:14:20.700Z,32.30
2019-03-24T09:16:49.280Z,33.30
2019-03-24T09:19:17.833Z,33.30
2019-03-24T09:21:46.412Z,31.87
2019-03-24T09:24:14.963Z,31.87
2019-03-24T09:26:43.541Z,31.77
2019-03-24T09:29:11.764Z,32.50
2019-03-24T09:31:40.008Z,33.63
2019-03-24T09:34:08.561Z,32.47
2019-03-24T09:36:37.140Z,32.47
2019-03-24T09:39:06.396Z,33.03
2019-03-24T09:41:35.040Z,31.37
2019-03-24T09:44:03.655Z,31.63
2019-03-24T09:46:32.443Z,32.80
2019-03-24T09:49:03.343Z,32.60
2019-03-24T09:51:31.200Z,32.03
2019-03-24T09:53:59.747Z,32.97
2019-03-24T09:56:28.399Z,32.20
2019-03-24T09:58:56.943Z,31.70
2019-03-24T10:01:25.520Z,30.30
2019-03-24T10:03:54.072Z,31.47
2019-03-24T10:06:22.649Z,30.43
2019-03-24T10:08:52.104Z,29.13
2019-03-24T10:11:20.355Z,30.00
2019-03-24T10:13:48.904Z,31.13
2019-03-24T10:16:17.480Z,29.67
2019-03-24T10:18:46.028Z,29.03
2019-03-24T10:21:14.607Z,30.53
2019-03-24T10:23:43.160Z,28.77
2019-03-24T10:26:11.736Z,29.40
2019-03-24T10:28:40.280Z,27.37
2019-03-24T10:31:08.860Z,29.30
2019-03-24T10:33:37.409Z,30.10
2019-03-24T10:36:06.126Z,28.97
2019-03-24T10:38:34.671Z,29.07
2019-03-24T10:41:03.215Z,29.47
2019-03-24T10:43:31.467Z,28.37
2019-03-24T10:46:00.084Z,26.80
2019-03-24T10:48:33.672Z,27.53
2019-03-24T10:50:58.862Z,28.93
2019-03-24T10:53:27.440Z,27.57
2019-03-24T10:55:56.060Z,27.20
2019-03-24T10:58:24.636Z,28.23
2019-03-24T11:00:53.185Z,28.27
2019-03-24T11:03:21.760Z,27.97
2019-03-24T11:05:50.311Z,28.07
2019-03-24T11:08:18.960Z,27.83
2019-03-24T11:10:47.509Z,29.23
2019-03-24T11:13:16.081Z,26.90
2019-03-24T11:15:44.627Z,27.93
2019-03-24T11:18:13.204Z,26.70
2019-03-24T11:20:41.423Z,26.97
2019-03-24T11:23:10.003Z,28.07
2019-03-24T11:25:38.560Z,27.00
2019-03-24T11:28:07.276Z,27.20
2019-03-24T11:30:35.829Z,28.00
2019-03-24T11:33:04.548Z,27.57
2019-03-24T11:35:33.097Z,25.73
2019-03-24T11:38:01.692Z,26.80
2019-03-24T11:40:30.221Z,27.40
2019-03-24T11:42:58.796Z,27.13
2019-03-24T11:45:27.372Z,26.67
2019-03-24T11:47:55.919Z,24.43
2019-03-24T11:50:24.500Z,25.60
2019-03-24T11:52:52.762Z,21.57
2019-03-24T11:55:21.303Z,25.97
2019-03-24T11:57:51.552Z,25.90
2019-03-24T12:00:23.380Z,25.13
2019-03-24T12:02:51.928Z,24.47
2019-03-24T12:05:20.512Z,25.60
2019-03-24T12:07:48.736Z,23.13
2019-03-24T12:10:17.379Z,24.63
2019-03-24T12:12:45.931Z,24.13
2019-03-24T12:15:14.671Z,21.60
2019-03-24T12:17:43.219Z,24.47
2019-03-24T12:20:12.036Z,24.37
2019-03-24T12:22:40.588Z,25.17
2019-03-24T12:25:09.312Z,24.53
2019-03-24T12:27:37.853Z,24.93
2019-03-24T12:30:08.273Z,21.63
2019-03-24T12:32:36.888Z,23.17
2019-03-24T12:35:07.607Z,24.00
2019-03-24T12:37:36.818Z,24.13
2019-03-24T12:40:09.866Z,22.00
2019-03-24T12:42:39.070Z,24.73
2019-03-24T12:45:09.185Z,21.40
2019-03-24T12:47:37.804Z,18.63
2019-03-24T12:50:09.099Z,17.93
2019-03-24T12:52:36.688Z,17.33
2019-03-24T12:55:06.977Z,17.87
2019-03-24T12:57:35.525Z,16.47
2019-03-24T13:00:06.912Z,14.37
2019-03-24T13:02:35.464Z,15.77
2019-03-24T13:05:06.765Z,16.83
2019-03-24T13:07:35.299Z,17.57
2019-03-24T13:10:08.832Z,17.77
2019-03-24T13:12:37.473Z,21.13
2019-03-24T13:15:09.447Z,18.33
2019-03-24T13:17:38.177Z,22.10
2019-03-24T13:20:07.907Z,21.77
2019-03-24T13:22:36.507Z,19.40
2019-03-24T13:25:08.084Z,19.73
2019-03-24T13:27:36.724Z,21.17
2019-03-24T13:30:07.019Z,21.30
2019-03-24T13:32:35.596Z,19.30
2019-03-24T13:35:04.888Z,20.43
2019-03-24T13:37:33.132Z,20.80
2019-03-24T13:40:01.755Z,20.40
2019-03-24T13:42:30.337Z,21.27
2019-03-24T13:44:58.887Z,20.00
2019-03-24T13:47:27.532Z,21.20
2019-03-24T13:49:56.150Z,20.77
2019-03-24T13:52:24.804Z,20.77
2019-03-24T13:54:53.132Z,21.30
2019-03-24T13:57:21.757Z,20.80
2019-03-24T13:59:50.331Z,22.00
2019-03-24T14:02:19.019Z,21.57
2019-03-24T14:04:47.709Z,21.27
2019-03-24T14:07:16.308Z,20.73
2019-03-24T14:09:44.889Z,22.00
2019-03-24T14:12:13.104Z,21.70
2019-03-24T14:14:41.684Z,21.80
2019-03-24T14:17:10.232Z,21.47
2019-03-24T14:19:38.880Z,19.27
2019-03-24T14:22:07.568Z,19.47
2019-03-24T14:24:36.148Z,18.33
2019-03-24T14:27:04.778Z,19.57
2019-03-24T14:29:33.345Z,19.90
2019-03-24T14:32:01.959Z,19.73
2019-03-24T14:34:30.535Z,18.90
2019-03-24T14:36:59.085Z,19.83
2019-03-24T14:39:27.664Z,19.03
2019-03-24T14:41:56.311Z,20.70
2019-03-24T14:44:24.864Z,19.87
2019-03-24T14:46:53.439Z,19.07
2019-03-24T14:49:21.992Z,20.77
2019-03-24T14:51:50.575Z,19.07
2019-03-24T14:54:19.120Z,20.03
2019-03-24T14:56:47.696Z,19.07
2019-03-24T14:59:16.245Z,19.87
2019-03-24T15:01:44.820Z,18.83
2019-03-24T15:04:13.058Z,18.00
2019-03-24T15:06:41.616Z,19.53
2019-03-24T15:09:10.233Z,19.23
2019-03-24T15:11:38.805Z,18.90
2019-03-24T15:14:07.360Z,18.90
2019-03-24T15:16:35.936Z,18.73
2019-03-24T15:19:04.224Z,19.00
2019-03-24T15:21:32.804Z,19.00
2019-03-24T15:24:01.352Z,18.73
2019-03-24T15:26:29.929Z,17.57
2019-03-24T15:28:58.481Z,18.53
2019-03-24T15:31:27.056Z,19.53
2019-03-24T15:33:55.611Z,18.37
2019-03-24T15:36:24.156Z,18.53
2019-03-24T15:38:52.737Z,17.93
2019-03-24T15:41:21.323Z,17.97
2019-03-24T15:43:49.937Z,19.10
2019-03-24T15:46:18.222Z,18.57
2019-03-24T15:48:46.808Z,18.87
2019-03-24T15:51:17.104Z,19.53
2019-03-24T15:53:45.584Z,88.07
2019-03-24T15:56:14.136Z,45.17
2019-03-24T15:58:42.712Z,28.37
2019-03-24T16:01:11.263Z,20.50
2019-03-24T16:03:39.516Z,23.20
2019-03-24T16:06:08.066Z,41.37
2019-03-24T16:08:36.712Z,22.03
2019-03-24T16:11:05.400Z,25.93
2019-03-24T16:13:33.978Z,32.70
2019-03-24T16:16:02.524Z,32.93
2019-03-24T16:18:31.104Z,24.80
2019-03-24T16:20:59.320Z,22.87
2019-03-24T16:23:27.973Z,23.43
2019-03-24T16:25:56.523Z,32.07
2019-03-24T16:28:25.096Z,25.20
2019-03-24T16:30:53.715Z,25.93
2019-03-24T16:33:22.300Z,22.17
2019-03-24T16:35:50.853Z,24.63
2019-03-24T16:38:19.096Z,22.77
2019-03-24T16:40:47.648Z,24.97
2019-03-24T16:43:16.236Z,25.03
2019-03-24T16:45:47.140Z,24.57
2019-03-24T16:48:15.000Z,27.43
2019-03-24T16:50:43.616Z,27.03
2019-03-24T16:53:12.266Z,28.17
2019-03-24T16:55:40.480Z,26.73
2019-03-24T16:58:09.136Z,28.57
2019-03-24T17:00:37.825Z,27.17
2019-03-24T17:03:06.400Z,26.27
2019-03-24T17:05:34.964Z,27.57
2019-03-24T17:08:03.544Z,26.53
2019-03-24T17:10:32.613Z,27.57
2019-03-24T17:13:01.160Z,27.47
2019-03-24T17:15:29.403Z,27.97
2019-03-24T17:17:57.956Z,28.10
2019-03-24T17:20:26.533Z,25.57
2019-03-24T17:22:54.753Z,30.70
2019-03-24T17:25:23.330Z,28.13
2019-03-24T17:27:51.878Z,25.73
2019-03-24T17:30:20.595Z,28.10
2019-03-24T17:32:49.214Z,27.33
2019-03-24T17:35:17.787Z,26.17
2019-03-24T17:37:46.339Z,27.07
2019-03-24T17:40:15.143Z,25.03
2019-03-24T17:42:43.760Z,28.67
2019-03-24T17:45:13.180Z,27.77
2019-03-24T17:47:41.728Z,28.83
2019-03-24T17:50:12.120Z,28.10
2019-03-24T17:52:40.865Z,27.40
2019-03-24T17:55:09.684Z,27.73
2019-03-24T17:57:38.232Z,26.53
2019-03-24T18:00:09.816Z,27.17
2019-03-24T18:02:38.366Z,30.67
2019-03-24T18:05:07.780Z,28.37
2019-03-24T18:07:36.328Z,28.10
2019-03-24T18:10:06.243Z,27.27
2019-03-24T18:12:34.793Z,27.40
2019-03-24T18:15:04.316Z,27.13
2019-03-24T18:17:32.930Z,27.00
2019-03-24T18:20:01.512Z,26.97
2019-03-24T18:22:29.719Z,28.00
2019-03-24T18:24:58.297Z,28.10
2019-03-24T18:27:26.920Z,28.97
2019-03-24T18:29:55.509Z,26.97
2019-03-24T18:32:24.124Z,28.80
2019-03-24T18:34:52.757Z,27.57
2019-03-24T18:37:21.296Z,28.37
2019-03-24T18:39:49.860Z,28.57
2019-03-24T18:42:18.439Z,28.73
2019-03-24T18:44:46.987Z,28.43
2019-03-24T18:47:15.565Z,28.07
2019-03-24T18:49:44.129Z,28.17
2019-03-24T18:52:22.335Z,28.20
2019-03-24T18:54:42.888Z,29.97
2019-03-24T18:57:11.469Z,28.80
2019-03-24T18:59:40.012Z,29.70
2019-03-24T19:02:08.664Z,28.23
2019-03-24T19:04:37.209Z,30.23
2019-03-24T19:07:05.784Z,28.83
2019-03-24T19:09:34.404Z,28.60
2019-03-24T19:12:03.051Z,29.20
2019-03-24T19:14:31.600Z,28.43
2019-03-24T19:17:00.176Z,30.80
2019-03-24T19:19:28.730Z,30.47
2019-03-24T19:21:57.371Z,27.53
2019-03-24T19:24:25.932Z,29.73
2019-03-24T19:26:54.516Z,29.17
2019-03-24T19:29:23.064Z,28.87
2019-03-24T19:31:51.719Z,27.67
2019-03-24T19:34:20.273Z,30.00
2019-03-24T19:36:49.624Z,29.03
2019-03-24T19:39:18.178Z,29.63
2019-03-24T19:41:46.821Z,28.97
2019-03-24T19:44:15.412Z,29.97
2019-03-24T19:46:43.970Z,29.43
2019-03-24T19:49:12.540Z,30.33
2019-03-24T19:51:40.758Z,35.93
2019-03-24T19:54:09.332Z,30.10
2019-03-24T19:56:37.880Z,26.93
2019-03-24T19:59:06.451Z,25.60
2019-03-24T20:01:34.999Z,27.57
2019-03-24T20:04:03.816Z,25.67
2019-03-24T20:06:32.370Z,26.97
2019-03-24T20:09:00.948Z,26.90
2019-03-24T20:11:29.504Z,27.60
2019-03-24T20:13:58.153Z,28.30
2019-03-24T20:16:26.710Z,25.83
2019-03-24T20:18:55.279Z,25.73
2019-03-24T20:21:24.391Z,26.47
2019-03-24T20:23:52.964Z,27.23
2019-03-24T20:26:21.179Z,27.30
2019-03-24T20:28:49.752Z,27.47
2019-03-24T20:31:17.971Z,28.53
2019-03-24T20:33:46.549Z,26.23
2019-03-24T20:36:15.100Z,27.17
2019-03-24T20:38:43.669Z,26.93
2019-03-24T20:41:12.212Z,25.67
2019-03-24T20:43:40.788Z,26.40
2019-03-24T20:46:09.405Z,26.63
2019-03-24T20:48:37.657Z,24.43
2019-03-24T20:51:06.197Z,27.77
2019-03-24T20:53:34.739Z,28.53
2019-03-24T20:56:03.585Z,28.63
2019-03-24T20:58:31.799Z,28.30
2019-03-24T21:01:00.369Z,26.57
2019-03-24T21:03:28.916Z,27.90
2019-03-24T21:05:57.484Z,26.13
2019-03-24T21:08:26.036Z,28.27
2019-03-24T21:10:54.673Z,28.33
2019-03-24T21:13:23.228Z,24.97
2019-03-24T21:15:51.472Z,25.97
2019-03-24T21:18:20.012Z,26.00
2019-03-24T21:20:48.584Z,27.77
2019-03-24T21:23:17.134Z,26.47
2019-03-24T21:25:45.704Z,26.70
2019-03-24T21:28:14.288Z,28.13
2019-03-24T21:30:42.996Z,27.30
2019-03-24T21:33:11.610Z,26.60
2019-03-24T21:35:40.256Z,27.30
2019-03-24T21:38:08.868Z,26.80
2019-03-24T21:40:37.516Z,27.80
2019-03-24T21:43:06.604Z,26.70
2019-03-24T21:45:35.121Z,27.13
2019-03-24T21:48:03.832Z,26.40
2019-03-24T21:50:32.376Z,26.77
2019-03-24T21:53:00.953Z,27.43
2019-03-24T21:55:29.492Z,26.90
2019-03-24T21:57:58.041Z,26.33
2019-03-24T22:00:32.067Z,24.80
2019-03-24T22:03:00.635Z,26.40
2019-03-24T22:05:29.182Z,26.17
2019-03-24T22:07:57.756Z,24.50
2019-03-24T22:10:26.292Z,26.97
2019-03-24T22:12:54.863Z,26.97
2019-03-24T22:15:23.406Z,26.40
2019-03-24T22:17:51.976Z,26.40
2019-03-24T22:20:20.524Z,27.30
2019-03-24T22:22:49.100Z,27.70
2019-03-24T22:25:17.315Z,28.13
2019-03-24T22:27:45.908Z,27.70
2019-03-24T22:30:14.572Z,30.23
2019-03-24T22:32:43.144Z,28.87
2019-03-24T22:35:11.758Z,30.13
2019-03-24T22:37:40.335Z,31.70
2019-03-24T22:40:09.218Z,32.80
2019-03-24T22:42:37.507Z,33.20
2019-03-24T22:45:06.024Z,30.47
2019-03-24T22:47:34.564Z,28.90
2019-03-24T22:50:04.473Z,29.57
2019-03-24T22:52:33.012Z,29.63
2019-03-24T22:55:01.588Z,29.77
2019-03-24T22:57:32.556Z,28.53
2019-03-24T23:00:00.352Z,29.13
2019-03-24T23:02:29.033Z,29.83
2019-03-24T23:04:57.676Z,30.77
2019-03-24T23:07:26.217Z,27.80
2019-03-24T23:09:54.856Z,26.83
2019-03-24T23:12:23.404Z,29.27
2019-03-24T23:14:51.977Z,28.40
2019-03-24T23:17:20.588Z,30.80
2019-03-24T23:19:49.164Z,31.90
2019-03-24T23:22:17.708Z,29.30
2019-03-24T23:24:46.298Z,29.50
2019-03-24T23:27:14.836Z,29.67
2019-03-24T23:29:43.387Z,31.57
2019-03-24T23:32:11.949Z,29.50
2019-03-24T23:34:40.564Z,31.63
2019-03-24T23:37:08.812Z,30.77
2019-03-24T23:39:37.352Z,30.37
2019-03-24T23:42:06.005Z,30.03
2019-03-24T23:44:34.549Z,33.27
2019-03-24T23:47:03.120Z,30.03
2019-03-24T23:49:31.668Z,28.63
2019-03-24T23:52:00.313Z,31.37
2019-03-24T23:54:28.528Z,32.23
2019-03-24T23:56:57.109Z,31.53
2019-03-24T23:59:25.652Z,30.57
